sensor_id;sensor_type;location;lat;lon;timestamp;pressure;altitude;pressure_sealevel;temperature;humidity
62634;BME280;48704;50.534;6.442;2023-02-03T00:00:04;96485.69;;;4.64;100.00
62634;BME280;48704;50.534;6.442;2023-02-03T00:02:30;96503.09;;;4.61;100.00
62634;BME280;48704;50.534;6.442;2023-02-03T00:04:55;96476.22;;;4.65;100.00
62634;BME280;48704;50.534;6.442;2023-02-03T00:07:21;96487.25;;;4.65;100.00
62634;BME280;48704;50.534;6.442;2023-02-03T00:09:46;96480.19;;;4.64;100.00
62634;BME280;48704;50.534;6.442;2023-02-03T00:12:12;96470.69;;;4.65;100.00
62634;BME280;48704;50.534;6.442;2023-02-03T00:14:38;96509.41;;;4.62;100.00
62634;BME280;48704;50.534;6.442;2023-02-03T00:17:04;96477.41;;;4.64;100.00
62634;BME280;48704;50.534;6.442;2023-02-03T00:19:30;96470.69;;;4.65;100.00
62634;BME280;48704;50.534;6.442;2023-02-03T00:21:55;96465.19;;;4.65;100.00
62634;BME280;48704;50.534;6.442;2023-02-03T00:24:20;96468.31;;;4.67;100.00
62634;BME280;48704;50.534;6.442;2023-02-03T00:26:48;96459.28;;;4.63;100.00
62634;BME280;48704;50.534;6.442;2023-02-03T00:29:13;96448.63;;;4.65;100.00
62634;BME280;48704;50.534;6.442;2023-02-03T00:31:39;96422.63;;;4.63;100.00
62634;BME280;48704;50.534;6.442;2023-02-03T00:34:04;96416.31;;;4.62;100.00
62634;BME280;48704;50.534;6.442;2023-02-03T00:36:30;96404.50;;;4.62;100.00
62634;BME280;48704;50.534;6.442;2023-02-03T00:38:56;96393.16;;;4.56;100.00
62634;BME280;48704;50.534;6.442;2023-02-03T00:41:21;96402.88;;;4.64;100.00
62634;BME280;48704;50.534;6.442;2023-02-03T00:43:47;96394.25;;;4.62;100.00
62634;BME280;48704;50.534;6.442;2023-02-03T00:46:12;96403.34;;;4.59;100.00
62634;BME280;48704;50.534;6.442;2023-02-03T00:48:38;96407.69;;;4.60;100.00
62634;BME280;48704;50.534;6.442;2023-02-03T00:51:04;96394.25;;;4.62;100.00
62634;BME280;48704;50.534;6.442;2023-02-03T00:53:29;96402.47;;;4.66;100.00
62634;BME280;48704;50.534;6.442;2023-02-03T00:55:55;96409.97;;;4.65;100.00
62634;BME280;48704;50.534;6.442;2023-02-03T00:58:20;96396.16;;;4.65;100.00
62634;BME280;48704;50.534;6.442;2023-02-03T01:00:46;96396.16;;;4.65;100.00
62634;BME280;48704;50.534;6.442;2023-02-03T01:03:11;96390.66;;;4.65;100.00
62634;BME280;48704;50.534;6.442;2023-02-03T01:05:36;96388.72;;;4.62;100.00
62634;BME280;48704;50.534;6.442;2023-02-03T01:08:02;96381.63;;;4.61;100.00
62634;BME280;48704;50.534;6.442;2023-02-03T01:10:28;96387.09;;;4.65;100.00
62634;BME280;48704;50.534;6.442;2023-02-03T01:12:54;96398.56;;;4.63;100.00
62634;BME280;48704;50.534;6.442;2023-02-03T01:15:19;96397.38;;;4.64;100.00
62634;BME280;48704;50.534;6.442;2023-02-03T01:17:45;96386.31;;;4.64;100.00
62634;BME280;48704;50.534;6.442;2023-02-03T01:20:10;96393.88;;;4.60;100.00
62634;BME280;48704;50.534;6.442;2023-02-03T01:22:38;96385.19;;;4.62;100.00
62634;BME280;48704;50.534;6.442;2023-02-03T01:25:03;96387.53;;;4.63;100.00
62634;BME280;48704;50.534;6.442;2023-02-03T01:27:31;96382.84;;;4.60;100.00
62634;BME280;48704;50.534;6.442;2023-02-03T01:29:56;96394.66;;;4.61;100.00
62634;BME280;48704;50.534;6.442;2023-02-03T01:32:21;96372.16;;;4.62;100.00
62634;BME280;48704;50.534;6.442;2023-02-03T01:34:47;96372.94;;;4.63;100.00
62634;BME280;48704;50.534;6.442;2023-02-03T01:37:12;96395.03;;;4.63;100.00
62634;BME280;48704;50.534;6.442;2023-02-03T01:39:41;96405.28;;;4.62;100.00
62634;BME280;48704;50.534;6.442;2023-02-03T01:42:08;96417.06;;;4.66;100.00
62634;BME280;48704;50.534;6.442;2023-02-03T01:47:17;96413.81;;;4.72;100.00
62634;BME280;48704;50.534;6.442;2023-02-03T01:49:50;96416.94;;;4.74;100.00
62634;BME280;48704;50.534;6.442;2023-02-03T01:52:17;96444.56;;;4.74;100.00
62634;BME280;48704;50.534;6.442;2023-02-03T01:54:44;96435.13;;;4.71;100.00
62634;BME280;48704;50.534;6.442;2023-02-03T01:57:15;96422.16;;;4.68;100.00
62634;BME280;48704;50.534;6.442;2023-02-03T01:59:43;96423.78;;;4.65;100.00
62634;BME280;48704;50.534;6.442;2023-02-03T02:02:10;96434.88;;;4.62;100.00
62634;BME280;48704;50.534;6.442;2023-02-03T02:05:13;96417.88;;;4.63;100.00
62634;BME280;48704;50.534;6.442;2023-02-03T02:07:32;96417.16;;;4.59;100.00
62634;BME280;48704;50.534;6.442;2023-02-03T02:09:59;96420.28;;;4.61;100.00
62634;BME280;48704;50.534;6.442;2023-02-03T02:12:26;96422.78;;;4.52;100.00
62634;BME280;48704;50.534;6.442;2023-02-03T02:14:51;96425.53;;;4.52;100.00
62634;BME280;48704;50.534;6.442;2023-02-03T02:17:30;96464.66;;;4.47;100.00
62634;BME280;48704;50.534;6.442;2023-02-03T02:20:15;96445.88;;;4.39;100.00
62634;BME280;48704;50.534;6.442;2023-02-03T02:33:58;96427.22;;;4.19;100.00
62634;BME280;48704;50.534;6.442;2023-02-03T02:36:42;96431.97;;;4.19;100.00
62634;BME280;48704;50.534;6.442;2023-02-03T02:39:25;96436.75;;;4.15;100.00
62634;BME280;48704;50.534;6.442;2023-02-03T02:42:02;96417.44;;;4.15;100.00
62634;BME280;48704;50.534;6.442;2023-02-03T02:44:43;96437.88;;;4.17;100.00
62634;BME280;48704;50.534;6.442;2023-02-03T02:47:19;96435.44;;;4.23;100.00
62634;BME280;48704;50.534;6.442;2023-02-03T02:50:00;96439.78;;;4.24;100.00
62634;BME280;48704;50.534;6.442;2023-02-03T02:52:31;96422.38;;;4.27;100.00
62634;BME280;48704;50.534;6.442;2023-02-03T02:55:02;96430.56;;;4.34;100.00
62634;BME280;48704;50.534;6.442;2023-02-03T02:57:30;96419.22;;;4.28;100.00
62634;BME280;48704;50.534;6.442;2023-02-03T02:59:58;96411.25;;;4.34;100.00
62634;BME280;48704;50.534;6.442;2023-02-03T03:02:31;96404.19;;;4.33;100.00
62634;BME280;48704;50.534;6.442;2023-02-03T03:04:57;96412.03;;;4.34;100.00
62634;BME280;48704;50.534;6.442;2023-02-03T03:07:26;96407.28;;;4.35;100.00
62634;BME280;48704;50.534;6.442;2023-02-03T03:10:02;96396.31;;;4.31;100.00
62634;BME280;48704;50.534;6.442;2023-02-03T03:12:33;96396.31;;;4.31;100.00
62634;BME280;48704;50.534;6.442;2023-02-03T03:15:09;96394.84;;;4.23;100.00
62634;BME280;48704;50.534;6.442;2023-02-03T03:17:43;96399.59;;;4.23;100.00
62634;BME280;48704;50.534;6.442;2023-02-03T03:20:15;96398.81;;;4.22;100.00
62634;BME280;48704;50.534;6.442;2023-02-03T03:22:51;96377.47;;;4.26;100.00
62634;BME280;48704;50.534;6.442;2023-02-03T03:25:28;96407.41;;;4.28;100.00
62634;BME280;48704;50.534;6.442;2023-02-03T03:28:01;96405.09;;;4.23;100.00
62634;BME280;48704;50.534;6.442;2023-02-03T03:30:35;96392.78;;;4.31;100.00
62634;BME280;48704;50.534;6.442;2023-02-03T03:33:01;96419.16;;;4.32;100.00
62634;BME280;48704;50.534;6.442;2023-02-03T03:35:31;96416.41;;;4.32;100.00
62634;BME280;48704;50.534;6.442;2023-02-03T03:38:04;96424.59;;;4.39;100.00
62634;BME280;48704;50.534;6.442;2023-02-03T03:40:32;96430.84;;;4.43;100.00
62634;BME280;48704;50.534;6.442;2023-02-03T03:43:02;96411.56;;;4.40;100.00
62634;BME280;48704;50.534;6.442;2023-02-03T03:45:33;96410.00;;;4.39;100.00
62634;BME280;48704;50.534;6.442;2023-02-03T03:48:02;96404.66;;;4.51;100.00
62634;BME280;48704;50.534;6.442;2023-02-03T03:50:31;96405.50;;;4.48;100.00
62634;BME280;48704;50.534;6.442;2023-02-03T03:52:58;96413.84;;;4.45;100.00
62634;BME280;48704;50.534;6.442;2023-02-03T03:55:25;96430.41;;;4.45;100.00
62634;BME280;48704;50.534;6.442;2023-02-03T03:57:59;96447.31;;;4.47;100.00
62634;BME280;48704;50.534;6.442;2023-02-03T04:00:26;96429.97;;;4.46;100.00
62634;BME280;48704;50.534;6.442;2023-02-03T04:02:53;96422.84;;;4.49;100.00
62634;BME280;48704;50.534;6.442;2023-02-03T04:05:19;96419.66;;;4.50;100.00
62634;BME280;48704;50.534;6.442;2023-02-03T04:07:46;96417.31;;;4.49;100.00
62634;BME280;48704;50.534;6.442;2023-02-03T04:10:33;96411.78;;;4.49;100.00
62634;BME280;48704;50.534;6.442;2023-02-03T04:12:57;96399.19;;;4.48;100.00
62634;BME280;48704;50.534;6.442;2023-02-03T04:15:22;96408.75;;;4.43;100.00
62634;BME280;48704;50.534;6.442;2023-02-03T04:17:48;96401.59;;;4.46;100.00
62634;BME280;48704;50.534;6.442;2023-02-03T04:20:13;96389.81;;;4.45;100.00
62634;BME280;48704;50.534;6.442;2023-02-03T04:22:39;96384.28;;;4.45;100.00
62634;BME280;48704;50.534;6.442;2023-02-03T04:25:04;96379.50;;;4.46;100.00
62634;BME280;48704;50.534;6.442;2023-02-03T04:27:30;96379.50;;;4.46;100.00
62634;BME280;48704;50.534;6.442;2023-02-03T04:29:55;96384.63;;;4.47;100.00
62634;BME280;48704;50.534;6.442;2023-02-03T04:32:20;96374.00;;;4.46;100.00
62634;BME280;48704;50.534;6.442;2023-02-03T04:34:45;96394.47;;;4.48;100.00
62634;BME280;48704;50.534;6.442;2023-02-03T04:37:11;96399.97;;;4.48;100.00
62634;BME280;48704;50.534;6.442;2023-02-03T04:39:36;96392.91;;;4.47;100.00
62634;BME280;48704;50.534;6.442;2023-02-03T04:42:01;96359.44;;;4.45;100.00
62634;BME280;48704;50.534;6.442;2023-02-03T04:44:26;96347.31;;;4.39;100.00
62634;BME280;48704;50.534;6.442;2023-02-03T04:46:52;96359.19;;;4.36;100.00
62634;BME280;48704;50.534;6.442;2023-02-03T04:49:17;96383.56;;;4.41;100.00
62634;BME280;48704;50.534;6.442;2023-02-03T04:51:42;96375.22;;;4.45;100.00
62634;BME280;48704;50.534;6.442;2023-02-03T04:54:10;96386.25;;;4.45;100.00
62634;BME280;48704;50.534;6.442;2023-02-03T04:56:36;96379.97;;;4.44;100.00
62634;BME280;48704;50.534;6.442;2023-02-03T04:59:01;96389.81;;;4.45;100.00
62634;BME280;48704;50.534;6.442;2023-02-03T05:01:26;96412.72;;;4.42;100.00
62634;BME280;48704;50.534;6.442;2023-02-03T05:03:51;96401.59;;;4.46;100.00
62634;BME280;48704;50.534;6.442;2023-02-03T05:06:20;96400.06;;;4.45;100.00
62634;BME280;48704;50.534;6.442;2023-02-03T05:08:46;96393.03;;;4.40;100.00
62634;BME280;48704;50.534;6.442;2023-02-03T05:11:11;96421.34;;;4.44;100.00
62634;BME280;48704;50.534;6.442;2023-02-03T05:13:36;96420.56;;;4.44;100.00
62634;BME280;48704;50.534;6.442;2023-02-03T05:16:01;96422.19;;;4.41;100.00
62634;BME280;48704;50.534;6.442;2023-02-03T05:18:27;96408.75;;;4.43;100.00
62634;BME280;48704;50.534;6.442;2023-02-03T05:20:52;96409.88;;;4.46;100.00
62634;BME280;48704;50.534;6.442;2023-02-03T05:23:17;96410.97;;;4.52;100.00
62634;BME280;48704;50.534;6.442;2023-02-03T05:25:43;96433.81;;;4.52;100.00
62634;BME280;48704;50.534;6.442;2023-02-03T05:28:08;96432.25;;;4.51;100.00
62634;BME280;48704;50.534;6.442;2023-02-03T05:30:33;96407.06;;;4.49;100.00
62634;BME280;48704;50.534;6.442;2023-02-03T05:32:58;96400.75;;;4.49;100.00
62634;BME280;48704;50.534;6.442;2023-02-03T05:35:24;96399.16;;;4.51;100.00
62634;BME280;48704;50.534;6.442;2023-02-03T05:37:49;96388.84;;;4.55;100.00
62634;BME280;48704;50.534;6.442;2023-02-03T05:40:14;96389.66;;;4.52;100.00
62634;BME280;48704;50.534;6.442;2023-02-03T05:42:58;96391.28;;;4.50;100.00
62634;BME280;48704;50.534;6.442;2023-02-03T05:45:23;96388.47;;;4.53;100.00
62634;BME280;48704;50.534;6.442;2023-02-03T05:47:48;96395.19;;;4.52;100.00
62634;BME280;48704;50.534;6.442;2023-02-03T05:50:14;96406.66;;;4.51;100.00
62634;BME280;48704;50.534;6.442;2023-02-03T05:52:39;96393.16;;;4.56;100.00
62634;BME280;48704;50.534;6.442;2023-02-03T05:55:04;96395.13;;;4.56;100.00
62634;BME280;48704;50.534;6.442;2023-02-03T05:57:29;96402.63;;;4.55;100.00
62634;BME280;48704;50.534;6.442;2023-02-03T05:59:55;96387.69;;;4.53;100.00
62634;BME280;48704;50.534;6.442;2023-02-03T06:02:20;96401.50;;;4.53;100.00
62634;BME280;48704;50.534;6.442;2023-02-03T06:04:45;96384.16;;;4.52;100.00
62634;BME280;48704;50.534;6.442;2023-02-03T06:07:10;96395.91;;;4.56;100.00
62634;BME280;48704;50.534;6.442;2023-02-03T06:09:36;96408.16;;;4.55;100.00
62634;BME280;48704;50.534;6.442;2023-02-03T06:12:01;96395.97;;;4.53;100.00
62634;BME280;48704;50.534;6.442;2023-02-03T06:14:26;96403.84;;;4.54;100.00
62634;BME280;48704;50.534;6.442;2023-02-03T06:16:52;96403.00;;;4.57;100.00
62634;BME280;48704;50.534;6.442;2023-02-03T06:19:17;96401.50;;;4.53;100.00
62634;BME280;48704;50.534;6.442;2023-02-03T06:21:42;96421.94;;;4.55;100.00
62634;BME280;48704;50.534;6.442;2023-02-03T06:24:08;96425.06;;;4.57;100.00
62634;BME280;48704;50.534;6.442;2023-02-03T06:26:34;96423.16;;;4.54;100.00
62634;BME280;48704;50.534;6.442;2023-02-03T06:28:59;96447.56;;;4.56;100.00
62634;BME280;48704;50.534;6.442;2023-02-03T06:31:24;96456.28;;;4.54;100.00
62634;BME280;48704;50.534;6.442;2023-02-03T06:33:49;96424.34;;;4.53;100.00
62634;BME280;48704;50.534;6.442;2023-02-03T06:36:14;96426.75;;;4.51;100.00
62634;BME280;48704;50.534;6.442;2023-02-03T06:38:39;96435.75;;;4.55;100.00
62634;BME280;48704;50.534;6.442;2023-02-03T06:41:05;96456.63;;;4.56;100.00
62634;BME280;48704;50.534;6.442;2023-02-03T06:43:30;96428.63;;;4.58;100.00
62634;BME280;48704;50.534;6.442;2023-02-03T06:45:55;96421.53;;;4.57;100.00
62634;BME280;48704;50.534;6.442;2023-02-03T06:48:20;96431.53;;;4.47;100.00
62634;BME280;48704;50.534;6.442;2023-02-03T06:50:45;96434.19;;;4.54;100.00
62634;BME280;48704;50.534;6.442;2023-02-03T06:53:11;96439.25;;;4.59;100.00
62634;BME280;48704;50.534;6.442;2023-02-03T06:55:36;96431.00;;;4.56;100.00
62634;BME280;48704;50.534;6.442;2023-02-03T06:58:01;96431.78;;;4.56;100.00
62634;BME280;48704;50.534;6.442;2023-02-03T07:00:26;96420.38;;;4.54;100.00
62634;BME280;48704;50.534;6.442;2023-02-03T07:02:55;96432.25;;;4.51;100.00
62634;BME280;48704;50.534;6.442;2023-02-03T07:05:21;96414.50;;;4.52;100.00
62634;BME280;48704;50.534;6.442;2023-02-03T07:07:46;96429.13;;;4.49;100.00
62634;BME280;48704;50.534;6.442;2023-02-03T07:10:11;96411.75;;;4.52;100.00
62634;BME280;48704;50.534;6.442;2023-02-03T07:12:36;96406.22;;;4.52;100.00
62634;BME280;48704;50.534;6.442;2023-02-03T07:15:02;96405.09;;;4.50;100.00
62634;BME280;48704;50.534;6.442;2023-02-03T07:17:28;96407.78;;;4.53;100.00
62634;BME280;48704;50.534;6.442;2023-02-03T07:19:53;96399.16;;;4.51;100.00
62634;BME280;48704;50.534;6.442;2023-02-03T07:22:18;96414.50;;;4.52;100.00
62634;BME280;48704;50.534;6.442;2023-02-03T07:24:44;96402.28;;;4.53;100.00
62634;BME280;48704;50.534;6.442;2023-02-03T07:27:09;96393.63;;;4.51;100.00
62634;BME280;48704;50.534;6.442;2023-02-03T07:29:35;96409.00;;;4.52;100.00
62634;BME280;48704;50.534;6.442;2023-02-03T07:32:00;96403.47;;;4.52;100.00
62634;BME280;48704;50.534;6.442;2023-02-03T07:34:26;96391.22;;;4.53;100.00
62634;BME280;48704;50.534;6.442;2023-02-03T07:36:51;96408.56;;;4.54;100.00
62634;BME280;48704;50.534;6.442;2023-02-03T07:39:17;96401.44;;;4.56;100.00
62634;BME280;48704;50.534;6.442;2023-02-03T07:41:42;96411.63;;;4.59;100.00
62634;BME280;48704;50.534;6.442;2023-02-03T07:44:07;96417.16;;;4.59;100.00
62634;BME280;48704;50.534;6.442;2023-02-03T07:46:33;96409.25;;;4.61;100.00
62634;BME280;48704;50.534;6.442;2023-02-03T07:48:58;96408.81;;;4.63;100.00
62634;BME280;48704;50.534;6.442;2023-02-03T07:51:24;96417.88;;;4.63;100.00
62634;BME280;48704;50.534;6.442;2023-02-03T07:53:49;96400.50;;;4.66;100.00
62634;BME280;48704;50.534;6.442;2023-02-03T07:56:14;96417.41;;;4.68;100.00
62634;BME280;48704;50.534;6.442;2023-02-03T07:58:39;96420.97;;;4.69;100.00
62634;BME280;48704;50.534;6.442;2023-02-03T08:01:14;96427.25;;;4.69;100.00
62634;BME280;48704;50.534;6.442;2023-02-03T08:03:40;96437.47;;;4.73;100.00
62634;BME280;48704;50.534;6.442;2023-02-03T08:06:05;96438.25;;;4.73;100.00
62634;BME280;48704;50.534;6.442;2023-02-03T08:08:30;96452.84;;;4.74;100.00
62634;BME280;48704;50.534;6.442;2023-02-03T08:10:55;96436.28;;;4.74;100.00
62634;BME280;48704;50.534;6.442;2023-02-03T08:13:21;96450.06;;;4.74;100.00
62634;BME280;48704;50.534;6.442;2023-02-03T08:15:46;96436.63;;;4.76;100.00
62634;BME280;48704;50.534;6.442;2023-02-03T08:18:11;96449.25;;;4.77;100.00
62634;BME280;48704;50.534;6.442;2023-02-03T08:20:37;96458.66;;;4.79;100.00
62634;BME280;48704;50.534;6.442;2023-02-03T08:23:02;96456.31;;;4.78;100.00
62634;BME280;48704;50.534;6.442;2023-02-03T08:25:27;96450.03;;;4.77;100.00
62634;BME280;48704;50.534;6.442;2023-02-03T08:27:52;96464.25;;;4.76;100.00
62634;BME280;48704;50.534;6.442;2023-02-03T08:30:17;96465.03;;;4.76;100.00
62634;BME280;48704;50.534;6.442;2023-02-03T08:32:43;96464.25;;;4.76;100.00
62634;BME280;48704;50.534;6.442;2023-02-03T08:35:08;96493.06;;;4.75;100.00
62634;BME280;48704;50.534;6.442;2023-02-03T08:37:33;96488.34;;;4.72;100.00
62634;BME280;48704;50.534;6.442;2023-02-03T08:39:59;96483.25;;;4.70;100.00
62634;BME280;48704;50.534;6.442;2023-02-03T08:42:24;96480.19;;;4.64;100.00
62634;BME280;48704;50.534;6.442;2023-02-03T08:44:49;96499.13;;;4.62;100.00
62634;BME280;48704;50.534;6.442;2023-02-03T08:47:14;96498.31;;;4.65;100.00
62634;BME280;48704;50.534;6.442;2023-02-03T08:49:40;96478.97;;;4.65;100.00
62634;BME280;48704;50.534;6.442;2023-02-03T08:52:06;96505.41;;;4.66;100.00
62634;BME280;48704;50.534;6.442;2023-02-03T08:54:31;96504.56;;;4.69;100.00
62634;BME280;48704;50.534;6.442;2023-02-03T08:56:57;96478.50;;;4.70;100.00
62634;BME280;48704;50.534;6.442;2023-02-03T08:59:22;96473.34;;;4.73;100.00
62634;BME280;48704;50.534;6.442;2023-02-03T09:01:48;96481.63;;;4.73;100.00
62634;BME280;48704;50.534;6.442;2023-02-03T09:04:13;96460.69;;;4.75;100.00
62634;BME280;48704;50.534;6.442;2023-02-03T09:06:42;96467.41;;;4.74;100.00
62634;BME280;48704;50.534;6.442;2023-02-03T09:09:07;96458.34;;;4.74;100.00
62634;BME280;48704;50.534;6.442;2023-02-03T09:11:33;96469.41;;;4.74;100.00
62634;BME280;48704;50.534;6.442;2023-02-03T09:13:58;96483.19;;;4.74;100.00
62634;BME280;48704;50.534;6.442;2023-02-03T09:16:24;96476.00;;;4.80;100.00
62634;BME280;48704;50.534;6.442;2023-02-03T09:18:49;96484.75;;;4.75;100.00
62634;BME280;48704;50.534;6.442;2023-02-03T09:21:15;96460.38;;;4.69;100.00
62634;BME280;48704;50.534;6.442;2023-02-03T09:23:41;96469.50;;;4.66;100.00
62634;BME280;48704;50.534;6.442;2023-02-03T09:26:07;96473.09;;;4.63;100.00
62634;BME280;48704;50.534;6.442;2023-02-03T09:28:33;96486.91;;;4.63;100.00
62634;BME280;48704;50.534;6.442;2023-02-03T09:31:06;96503.81;;;4.65;100.00
62634;BME280;48704;50.534;6.442;2023-02-03T09:33:31;96486.91;;;4.63;100.00
62634;BME280;48704;50.534;6.442;2023-02-03T09:35:56;96484.13;;;4.63;100.00
62634;BME280;48704;50.534;6.442;2023-02-03T09:38:22;96475.84;;;4.63;100.00
62634;BME280;48704;50.534;6.442;2023-02-03T09:40:48;96484.19;;;4.60;100.00
62634;BME280;48704;50.534;6.442;2023-02-03T09:45:53;96492.88;;;4.58;100.00
62634;BME280;48704;50.534;6.442;2023-02-03T09:48:21;96485.84;;;4.54;100.00
62634;BME280;48704;50.534;6.442;2023-02-03T09:50:48;96504.84;;;4.48;100.00
62634;BME280;48704;50.534;6.442;2023-02-03T09:55:42;96471.03;;;4.44;100.00
62634;BME280;48704;50.534;6.442;2023-02-03T09:58:11;96476.56;;;4.44;100.00
62634;BME280;48704;50.534;6.442;2023-02-03T10:00:41;96490.84;;;4.35;100.00
62634;BME280;48704;50.534;6.442;2023-02-03T10:03:10;96478.16;;;4.42;100.00
62634;BME280;48704;50.534;6.442;2023-02-03T10:08:25;96493.53;;;4.43;100.00
62634;BME280;48704;50.534;6.442;2023-02-03T10:11:11;96486.81;;;4.44;100.00
62634;BME280;48704;50.534;6.442;2023-02-03T10:16:15;96490.63;;;4.50;100.00
62634;BME280;48704;50.534;6.442;2023-02-03T10:18:48;96479.56;;;4.53;100.00
62634;BME280;48704;50.534;6.442;2023-02-03T10:23:49;96482.69;;;4.55;100.00
62634;BME280;48704;50.534;6.442;2023-02-03T10:26:20;96487.78;;;4.57;100.00
62634;BME280;48704;50.534;6.442;2023-02-03T10:28:49;96491.31;;;4.57;100.00
62634;BME280;48704;50.534;6.442;2023-02-03T10:31:16;96488.16;;;4.59;100.00
62634;BME280;48704;50.534;6.442;2023-02-03T10:33:43;96495.53;;;4.65;100.00
62634;BME280;48704;50.534;6.442;2023-02-03T10:41:11;96510.09;;;4.69;100.00
62634;BME280;48704;50.534;6.442;2023-02-03T10:43:36;96509.31;;;4.69;100.00
62634;BME280;48704;50.534;6.442;2023-02-03T10:46:11;96502.16;;;4.72;100.00
62634;BME280;48704;50.534;6.442;2023-02-03T10:48:36;96523.84;;;4.73;100.00
62634;BME280;48704;50.534;6.442;2023-02-03T10:51:01;96525.03;;;4.72;100.00
62634;BME280;48704;50.534;6.442;2023-02-03T10:53:33;96523.41;;;4.75;100.00
62634;BME280;48704;50.534;6.442;2023-02-03T10:56:09;96525.75;;;4.76;100.00
62634;BME280;48704;50.534;6.442;2023-02-03T10:58:36;96538.44;;;4.74;100.00
62634;BME280;48704;50.534;6.442;2023-02-03T11:01:12;96551.44;;;4.73;100.00
62634;BME280;48704;50.534;6.442;2023-02-03T11:03:40;96535.66;;;4.74;100.00
62634;BME280;48704;50.534;6.442;2023-02-03T11:06:13;96535.66;;;4.74;100.00
62634;BME280;48704;50.534;6.442;2023-02-03T11:08:40;96551.06;;;4.71;100.00
62634;BME280;48704;50.534;6.442;2023-02-03T11:11:07;96535.56;;;4.81;100.00
62634;BME280;48704;50.534;6.442;2023-02-03T11:13:32;96545.88;;;4.77;100.00
62634;BME280;48704;50.534;6.442;2023-02-03T11:15:59;96521.69;;;4.84;100.00
62634;BME280;48704;50.534;6.442;2023-02-03T11:20:53;96522.34;;;4.92;100.00
62634;BME280;48704;50.534;6.442;2023-02-03T11:23:18;96501.09;;;4.89;100.00
62634;BME280;48704;50.534;6.442;2023-02-03T11:25:44;96488.50;;;4.88;100.00
62634;BME280;48704;50.534;6.442;2023-02-03T11:28:09;96496.31;;;4.93;100.00
62634;BME280;48704;50.534;6.442;2023-02-03T11:30:36;96512.09;;;4.92;100.00
62634;BME280;48704;50.534;6.442;2023-02-03T11:33:02;96490.66;;;5.00;100.00
62634;BME280;48704;50.534;6.442;2023-02-03T11:35:39;96476.38;;;5.05;100.00
62634;BME280;48704;50.534;6.442;2023-02-03T11:38:29;96479.50;;;5.07;100.00
62634;BME280;48704;50.534;6.442;2023-02-03T11:40:57;96483.84;;;5.08;100.00
62634;BME280;48704;50.534;6.442;2023-02-03T11:43:23;96474.72;;;5.11;100.00
62634;BME280;48704;50.534;6.442;2023-02-03T11:45:51;96489.72;;;5.10;100.00
62634;BME280;48704;50.534;6.442;2023-02-03T11:53:51;96473.16;;;5.10;100.00
62634;BME280;48704;50.534;6.442;2023-02-03T11:59:02;96484.97;;;5.11;100.00
62634;BME280;48704;50.534;6.442;2023-02-03T12:06:48;96475.78;;;5.17;100.00
62634;BME280;48704;50.534;6.442;2023-02-03T12:09:57;96479.88;;;5.09;100.00
62634;BME280;48704;50.534;6.442;2023-02-03T12:17:35;96500.00;;;5.10;100.00
62634;BME280;48704;50.534;6.442;2023-02-03T12:20:53;96492.84;;;5.12;100.00
62634;BME280;48704;50.534;6.442;2023-02-03T12:30:42;96513.31;;;5.15;100.00
62634;BME280;48704;50.534;6.442;2023-02-03T12:33:16;96513.81;;;5.10;100.00
62634;BME280;48704;50.534;6.442;2023-02-03T12:35:58;96516.56;;;5.10;100.00
62634;BME280;48704;50.534;6.442;2023-02-03T12:43:43;96511.94;;;5.03;100.00
62634;BME280;48704;50.534;6.442;2023-02-03T12:49:33;96489.78;;;5.07;100.00
62634;BME280;48704;50.534;6.442;2023-02-03T12:56:59;96504.63;;;5.16;100.00
62634;BME280;48704;50.534;6.442;2023-02-03T12:59:30;96487.13;;;5.23;100.00
62634;BME280;48704;50.534;6.442;2023-02-03T13:01:57;96476.16;;;5.19;100.00
62634;BME280;48704;50.534;6.442;2023-02-03T13:04:40;96477.69;;;5.20;100.00
62634;BME280;48704;50.534;6.442;2023-02-03T13:17:24;96473.03;;;5.17;100.00
62634;BME280;48704;50.534;6.442;2023-02-03T13:19:51;96473.38;;;5.19;100.00
62634;BME280;48704;50.534;6.442;2023-02-03T13:22:18;96476.28;;;5.12;100.00
62634;BME280;48704;50.534;6.442;2023-02-03T13:24:49;96491.34;;;5.08;100.00
62634;BME280;48704;50.534;6.442;2023-02-03T13:29:49;96490.44;;;5.14;100.00
62634;BME280;48704;50.534;6.442;2023-02-03T13:32:40;96472.31;;;5.13;100.00
62634;BME280;48704;50.534;6.442;2023-02-03T13:35:21;96496.50;;;5.06;100.00
62634;BME280;48704;50.534;6.442;2023-02-03T13:43:00;96484.19;;;5.10;100.00
62634;BME280;48704;50.534;6.442;2023-02-03T13:45:31;96477.06;;;5.13;100.00
62634;BME280;48704;50.534;6.442;2023-02-03T13:48:07;96500.78;;;5.10;100.00
62634;BME280;48704;50.534;6.442;2023-02-03T13:50:33;96486.59;;;5.08;100.00
62634;BME280;48704;50.534;6.442;2023-02-03T13:53:19;96514.22;;;5.08;100.00
62634;BME280;48704;50.534;6.442;2023-02-03T13:55:53;96488.16;;;5.09;100.00
62634;BME280;48704;50.534;6.442;2023-02-03T13:58:21;96488.69;;;5.00;100.00
62634;BME280;48704;50.534;6.442;2023-02-03T14:03:17;96496.09;;;5.07;100.00
62634;BME280;48704;50.534;6.442;2023-02-03T14:05:46;96512.66;;;5.07;100.00
62634;BME280;48704;50.534;6.442;2023-02-03T14:13:33;96474.72;;;5.11;100.00
62634;BME280;48704;50.534;6.442;2023-02-03T14:18:43;96494.53;;;5.06;100.00
62634;BME280;48704;50.534;6.442;2023-02-03T14:21:14;96491.34;;;5.08;100.00
62634;BME280;48704;50.534;6.442;2023-02-03T14:23:42;96501.91;;;5.13;100.00
62634;BME280;48704;50.534;6.442;2023-02-03T14:26:13;96509.91;;;5.07;100.00
62634;BME280;48704;50.534;6.442;2023-02-03T14:28:41;96500.78;;;5.10;100.00
62634;BME280;48704;50.534;6.442;2023-02-03T14:38:52;96506.41;;;5.03;100.00
62634;BME280;48704;50.534;6.442;2023-02-03T14:41:18;96520.69;;;4.98;100.00
62634;BME280;48704;50.534;6.442;2023-02-03T14:49:01;96537.50;;;5.07;100.00
62634;BME280;48704;50.534;6.442;2023-02-03T14:54:18;96527.66;;;5.06;100.00
62634;BME280;48704;50.534;6.442;2023-02-03T14:56:59;96527.63;;;5.10;100.00
62634;BME280;48704;50.534;6.442;2023-02-03T15:04:31;96541.38;;;5.13;100.00
62634;BME280;48704;50.534;6.442;2023-02-03T15:06:57;96547.31;;;5.12;100.00